sensor_id;sensor_type;location;lat;lon;timestamp;pressure;altitude;pressure_sealevel;temperature;humidity
6680;BME280;3376;42.664;23.346;2023-01-28T00:01:07;93876.06;;;1.41;100.00
6680;BME280;3376;42.664;23.346;2023-01-28T00:03:34;93872.41;;;1.53;100.00
6680;BME280;3376;42.664;23.346;2023-01-28T00:06:01;93884.53;;;1.51;100.00
6680;BME280;3376;42.664;23.346;2023-01-28T00:08:30;93887.09;;;1.51;100.00
6680;BME280;3376;42.664;23.346;2023-01-28T00:10:58;93890.94;;;1.55;100.00
6680;BME280;3376;42.664;23.346;2023-01-28T00:13:26;93886.38;;;1.68;100.00
6680;BME280;3376;42.664;23.346;2023-01-28T00:15:54;93899.00;;;1.60;100.00
6680;BME280;3376;42.664;23.346;2023-01-28T00:18:21;93902.22;;;1.62;100.00
6680;BME280;3376;42.664;23.346;2023-01-28T00:20:55;93902.38;;;1.51;100.00
6680;BME280;3376;42.664;23.346;2023-01-28T00:23:22;93898.25;;;1.40;100.00
6680;BME280;3376;42.664;23.346;2023-01-28T00:25:50;93901.72;;;1.30;100.00
6680;BME280;3376;42.664;23.346;2023-01-28T00:28:19;93899.31;;;1.28;100.00
6680;BME280;3376;42.664;23.346;2023-01-28T00:30:45;93897.44;;;1.20;100.00
6680;BME280;3376;42.664;23.346;2023-01-28T00:33:12;93902.53;;;1.20;100.00
6680;BME280;3376;42.664;23.346;2023-01-28T00:35:39;93902.00;;;1.17;100.00
6680;BME280;3376;42.664;23.346;2023-01-28T00:38:05;93909.50;;;1.18;100.00
6680;BME280;3376;42.664;23.346;2023-01-28T00:40:33;93913.00;;;1.27;100.00
6680;BME280;3376;42.664;23.346;2023-01-28T00:43:01;93914.34;;;1.31;100.00
6680;BME280;3376;42.664;23.346;2023-01-28T00:45:28;93909.50;;;1.38;100.00
6680;BME280;3376;42.664;23.346;2023-01-28T00:47:54;93918.66;;;1.40;100.00
6680;BME280;3376;42.664;23.346;2023-01-28T00:50:21;93919.72;;;1.38;100.00
6680;BME280;3376;42.664;23.346;2023-01-28T00:52:48;93920.53;;;1.38;100.00
6680;BME280;3376;42.664;23.346;2023-01-28T00:55:15;93921.19;;;1.31;100.00
6680;BME280;3376;42.664;23.346;2023-01-28T00:57:41;93921.63;;;1.16;100.00
6680;BME280;3376;42.664;23.346;2023-01-28T01:00:10;93911.41;;;1.16;100.00
6680;BME280;3376;42.664;23.346;2023-01-28T01:02:37;93925.09;;;1.15;100.00
6680;BME280;3376;42.664;23.346;2023-01-28T01:05:05;93926.03;;;1.14;100.00
6680;BME280;3376;42.664;23.346;2023-01-28T01:07:31;93917.56;;;1.23;100.00
6680;BME280;3376;42.664;23.346;2023-01-28T01:09:59;93920.25;;;1.32;100.00
6680;BME280;3376;42.664;23.346;2023-01-28T01:12:26;93917.03;;;1.30;100.00
6680;BME280;3376;42.664;23.346;2023-01-28T01:14:53;93925.88;;;1.26;100.00
6680;BME280;3376;42.664;23.346;2023-01-28T01:17:21;93920.53;;;1.29;100.00
6680;BME280;3376;42.664;23.346;2023-01-28T01:19:48;93915.16;;;1.22;100.00
6680;BME280;3376;42.664;23.346;2023-01-28T01:22:14;93915.69;;;1.06;100.00
6680;BME280;3376;42.664;23.346;2023-01-28T01:24:41;93925.63;;;1.09;100.00
6680;BME280;3376;42.664;23.346;2023-01-28T01:27:08;93909.25;;;1.02;100.00
6680;BME280;3376;42.664;23.346;2023-01-28T01:29:34;93931.53;;;1.19;100.00
6680;BME280;3376;42.664;23.346;2023-01-28T01:32:02;93918.63;;;1.11;100.00
6680;BME280;3376;42.664;23.346;2023-01-28T01:34:30;93928.06;;;1.11;100.00
6680;BME280;3376;42.664;23.346;2023-01-28T01:36:57;93915.97;;;1.03;100.00
6680;BME280;3376;42.664;23.346;2023-01-28T01:39:23;93927.09;;;1.02;100.00
6680;BME280;3376;42.664;23.346;2023-01-28T01:41:50;93924.28;;;1.05;100.00
6680;BME280;3376;42.664;23.346;2023-01-28T01:47:21;93926.28;;;1.02;100.00
6680;BME280;3376;42.664;23.346;2023-01-28T01:49:51;93920.66;;;0.98;100.00
6680;BME280;3376;42.664;23.346;2023-01-28T01:52:21;93927.78;;;1.14;100.00
6680;BME280;3376;42.664;23.346;2023-01-28T01:54:52;93925.09;;;1.15;100.00
6680;BME280;3376;42.664;23.346;2023-01-28T01:57:24;93918.63;;;1.11;100.00
6680;BME280;3376;42.664;23.346;2023-01-28T01:59:52;93928.31;;;1.17;100.00
6680;BME280;3376;42.664;23.346;2023-01-28T02:02:19;93928.59;;;1.14;100.00
6680;BME280;3376;42.664;23.346;2023-01-28T02:04:47;93927.50;;;0.98;100.00
6680;BME280;3376;42.664;23.346;2023-01-28T02:07:15;93937.84;;;1.06;100.00
6680;BME280;3376;42.664;23.346;2023-01-28T02:09:43;93939.16;;;1.10;100.00
6680;BME280;3376;42.664;23.346;2023-01-28T02:12:11;93931.81;;;0.97;100.00
6680;BME280;3376;42.664;23.346;2023-01-28T02:14:42;93939.84;;;1.02;100.00
6680;BME280;3376;42.664;23.346;2023-01-28T02:17:11;93940.91;;;1.00;100.00
6680;BME280;3376;42.664;23.346;2023-01-28T02:19:44;93944.69;;;1.05;100.00
6680;BME280;3376;42.664;23.346;2023-01-28T02:22:29;93937.44;;;1.10;100.00
6680;BME280;3376;42.664;23.346;2023-01-28T02:25:19;93944.41;;;0.99;100.00
6680;BME280;3376;42.664;23.346;2023-01-28T02:28:11;93937.69;;;0.98;100.00
6680;BME280;3376;42.664;23.346;2023-01-28T02:30:43;93940.41;;;1.06;100.00
6680;BME280;3376;42.664;23.346;2023-01-28T02:33:18;93943.72;;;1.06;100.00
6680;BME280;3376;42.664;23.346;2023-01-28T02:35:51;93949.78;;;1.05;100.00
6680;BME280;3376;42.664;23.346;2023-01-28T02:38:22;93947.63;;;1.10;100.00
6680;BME280;3376;42.664;23.346;2023-01-28T02:40:54;93952.47;;;1.13;100.00
6680;BME280;3376;42.664;23.346;2023-01-28T02:43:36;93934.47;;;1.05;100.00
6680;BME280;3376;42.664;23.346;2023-01-28T02:46:14;93947.78;;;1.09;100.00
6680;BME280;3376;42.664;23.346;2023-01-28T02:49:01;93947.38;;;1.13;100.00
6680;BME280;3376;42.664;23.346;2023-01-28T02:51:44;93953.94;;;1.06;100.00
6680;BME280;3376;42.664;23.346;2023-01-28T02:54:20;93949.50;;;1.08;100.00
6680;BME280;3376;42.664;23.346;2023-01-28T02:56:55;93837.44;;;0.40;100.00
6680;BME280;3376;42.664;23.346;2023-01-28T02:59:34;93955.66;;;0.96;100.00
6680;BME280;3376;42.664;23.346;2023-01-28T03:02:11;93946.28;;;0.97;100.00
6680;BME280;3376;42.664;23.346;2023-01-28T03:04:43;93952.75;;;1.10;100.00
6680;BME280;3376;42.664;23.346;2023-01-28T03:07:14;93928.56;;;0.95;100.00
6680;BME280;3376;42.664;23.346;2023-01-28T03:09:44;93951.66;;;1.03;100.00
6680;BME280;3376;42.664;23.346;2023-01-28T03:12:15;93952.59;;;1.02;100.00
6680;BME280;3376;42.664;23.346;2023-01-28T03:15:05;93948.28;;;1.03;100.00
6680;BME280;3376;42.664;23.346;2023-01-28T03:17:54;93960.66;;;1.07;100.00
6680;BME280;3376;42.664;23.346;2023-01-28T03:20:44;93936.91;;;0.97;100.00
6680;BME280;3376;42.664;23.346;2023-01-28T03:23:36;93962.81;;;1.02;100.00
6680;BME280;3376;42.664;23.346;2023-01-28T03:26:22;93957.31;;;0.97;100.00
6680;BME280;3376;42.664;23.346;2023-01-28T03:29:09;93955.66;;;0.96;100.00
6680;BME280;3376;42.664;23.346;2023-01-28T03:31:58;93964.94;;;0.97;100.00
6680;BME280;3376;42.664;23.346;2023-01-28T03:34:43;93967.50;;;0.97;100.00
6680;BME280;3376;42.664;23.346;2023-01-28T03:37:28;93947.75;;;0.90;100.00
6680;BME280;3376;42.664;23.346;2023-01-28T03:40:01;93923.84;;;0.72;100.00
6680;BME280;3376;42.664;23.346;2023-01-28T03:42:30;93963.44;;;0.85;100.00
6680;BME280;3376;42.664;23.346;2023-01-28T03:44:57;93966.94;;;1.03;100.00
6680;BME280;3376;42.664;23.346;2023-01-28T03:47:28;93949.47;;;0.89;100.00
6680;BME280;3376;42.664;23.346;2023-01-28T03:49:56;93956.22;;;0.90;100.00
6680;BME280;3376;42.664;23.346;2023-01-28T03:52:25;93968.28;;;0.79;100.00
6680;BME280;3376;42.664;23.346;2023-01-28T03:54:52;93965.59;;;0.90;100.00
6680;BME280;3376;42.664;23.346;2023-01-28T03:57:21;93966.41;;;1.00;100.00
6680;BME280;3376;42.664;23.346;2023-01-28T03:59:48;93965.59;;;0.99;100.00
6680;BME280;3376;42.664;23.346;2023-01-28T04:02:17;93968.16;;;0.99;100.00
6680;BME280;3376;42.664;23.346;2023-01-28T04:04:46;93976.75;;;0.98;100.00
6680;BME280;3376;42.664;23.346;2023-01-28T04:07:14;93981.03;;;0.98;100.00
6680;BME280;3376;42.664;23.346;2023-01-28T04:09:41;93978.88;;;1.03;100.00
6680;BME280;3376;42.664;23.346;2023-01-28T04:12:09;93974.69;;;0.83;100.00
6680;BME280;3376;42.664;23.346;2023-01-28T04:14:36;93977.53;;;0.80;100.00
6680;BME280;3376;42.664;23.346;2023-01-28T04:17:03;93980.34;;;0.86;100.00
6680;BME280;3376;42.664;23.346;2023-01-28T04:19:32;93977.94;;;0.85;100.00
6680;BME280;3376;42.664;23.346;2023-01-28T04:22:04;93979.78;;;0.83;100.00
6680;BME280;3376;42.664;23.346;2023-01-28T04:24:31;93994.28;;;0.82;100.00
6680;BME280;3376;42.664;23.346;2023-01-28T04:26:58;93980.03;;;0.70;100.00
6680;BME280;3376;42.664;23.346;2023-01-28T04:29:25;93987.81;;;0.69;100.00
6680;BME280;3376;42.664;23.346;2023-01-28T04:31:51;93997.50;;;0.75;100.00
6680;BME280;3376;42.664;23.346;2023-01-28T04:34:18;93997.78;;;0.81;100.00
6680;BME280;3376;42.664;23.346;2023-01-28T04:36:45;93998.22;;;0.96;100.00
6680;BME280;3376;42.664;23.346;2023-01-28T04:39:14;94005.06;;;0.95;100.00
6680;BME280;3376;42.664;23.346;2023-01-28T04:41:40;94016.72;;;0.88;100.00
6680;BME280;3376;42.664;23.346;2023-01-28T04:44:07;94010.03;;;0.97;100.00
6680;BME280;3376;42.664;23.346;2023-01-28T04:46:34;94022.91;;;1.05;100.00
6680;BME280;3376;42.664;23.346;2023-01-28T04:49:00;94017.94;;;0.94;100.00
6680;BME280;3376;42.664;23.346;2023-01-28T04:51:27;94016.56;;;0.90;100.00
6680;BME280;3376;42.664;23.346;2023-01-28T04:53:54;94017.91;;;0.84;100.00
6680;BME280;3376;42.664;23.346;2023-01-28T04:56:22;94020.88;;;0.89;100.00
6680;BME280;3376;42.664;23.346;2023-01-28T04:58:49;94019.13;;;0.90;100.00
6680;BME280;3376;42.664;23.346;2023-01-28T05:01:16;94018.19;;;0.91;100.00
6680;BME280;3376;42.664;23.346;2023-01-28T05:03:42;94015.75;;;0.89;100.00
6680;BME280;3376;42.664;23.346;2023-01-28T05:06:09;93865.94;;;-0.15;100.00
6680;BME280;3376;42.664;23.346;2023-01-28T05:08:36;94032.56;;;0.92;100.00
6680;BME280;3376;42.664;23.346;2023-01-28T05:11:03;94023.00;;;0.84;100.00
6680;BME280;3376;42.664;23.346;2023-01-28T05:13:31;94034.81;;;0.85;100.00
6680;BME280;3376;42.664;23.346;2023-01-28T05:15:58;94037.25;;;0.87;100.00
6680;BME280;3376;42.664;23.346;2023-01-28T05:18:24;94045.94;;;0.84;100.00
6680;BME280;3376;42.664;23.346;2023-01-28T05:20:51;94047.44;;;0.87;100.00
6680;BME280;3376;42.664;23.346;2023-01-28T05:23:18;94048.06;;;0.79;100.00
6680;BME280;3376;42.664;23.346;2023-01-28T05:25:44;94044.47;;;0.82;100.00
6680;BME280;3376;42.664;23.346;2023-01-28T05:28:11;94046.63;;;0.86;100.00
6680;BME280;3376;42.664;23.346;2023-01-28T05:30:39;94052.13;;;0.82;100.00
6680;BME280;3376;42.664;23.346;2023-01-28T05:33:06;94022.34;;;0.52;100.00
6680;BME280;3376;42.664;23.346;2023-01-28T05:35:33;94054.72;;;0.61;100.00
6680;BME280;3376;42.664;23.346;2023-01-28T05:38:00;94053.91;;;0.61;100.00
6680;BME280;3376;42.664;23.346;2023-01-28T05:40:27;94054.31;;;0.66;100.00
6680;BME280;3376;42.664;23.346;2023-01-28T05:42:54;94033.25;;;0.64;100.00
6680;BME280;3376;42.664;23.346;2023-01-28T05:45:21;94058.13;;;0.81;100.00
6680;BME280;3376;42.664;23.346;2023-01-28T05:47:49;94029.72;;;0.55;100.00
6680;BME280;3376;42.664;23.346;2023-01-28T05:50:16;94058.38;;;0.68;100.00
6680;BME280;3376;42.664;23.346;2023-01-28T05:52:43;94025.44;;;0.56;100.00
6680;BME280;3376;42.664;23.346;2023-01-28T05:55:10;94055.28;;;0.65;100.00
6680;BME280;3376;42.664;23.346;2023-01-28T05:57:37;94056.75;;;0.67;100.00
6680;BME280;3376;42.664;23.346;2023-01-28T06:00:04;94057.44;;;0.69;100.00
6680;BME280;3376;42.664;23.346;2023-01-28T06:02:31;94070.47;;;0.76;100.00
6680;BME280;3376;42.664;23.346;2023-01-28T06:05:00;94070.44;;;0.66;100.00
6680;BME280;3376;42.664;23.346;2023-01-28T06:07:26;94077.13;;;0.67;100.00
6680;BME280;3376;42.664;23.346;2023-01-28T06:09:53;94082.78;;;0.71;100.00
6680;BME280;3376;42.664;23.346;2023-01-28T06:12:20;94085.72;;;0.66;100.00
6680;BME280;3376;42.664;23.346;2023-01-28T06:14:46;93980.00;;;0.00;100.00
6680;BME280;3376;42.664;23.346;2023-01-28T06:17:13;94093.81;;;0.81;100.00
6680;BME280;3376;42.664;23.346;2023-01-28T06:19:40;94094.63;;;0.81;100.00
6680;BME280;3376;42.664;23.346;2023-01-28T06:22:08;94106.69;;;0.79;100.00
6680;BME280;3376;42.664;23.346;2023-01-28T06:24:35;94093.38;;;0.66;100.00
6680;BME280;3376;42.664;23.346;2023-01-28T06:27:02;94117.16;;;0.76;100.00
6680;BME280;3376;42.664;23.346;2023-01-28T06:29:29;94108.19;;;0.82;100.00
6680;BME280;3376;42.664;23.346;2023-01-28T06:31:55;94119.06;;;0.84;100.00
6680;BME280;3376;42.664;23.346;2023-01-28T06:34:22;94124.03;;;0.85;100.00
6680;BME280;3376;42.664;23.346;2023-01-28T06:36:49;94128.03;;;0.78;100.00
6680;BME280;3376;42.664;23.346;2023-01-28T06:39:19;94121.72;;;0.82;100.00
6680;BME280;3376;42.664;23.346;2023-01-28T06:41:46;94130.59;;;0.78;100.00
6680;BME280;3376;42.664;23.346;2023-01-28T06:44:13;94134.53;;;0.92;100.00
6680;BME280;3376;42.664;23.346;2023-01-28T06:46:40;94140.19;;;0.95;100.00
6680;BME280;3376;42.664;23.346;2023-01-28T06:49:06;94143.22;;;0.89;100.00
6680;BME280;3376;42.664;23.346;2023-01-28T06:51:33;94142.94;;;0.83;100.00
6680;BME280;3376;42.664;23.346;2023-01-28T06:54:00;94140.25;;;0.84;100.00
6680;BME280;3376;42.664;23.346;2023-01-28T06:56:28;94145.78;;;0.89;100.00
6680;BME280;3376;42.664;23.346;2023-01-28T06:58:55;94151.00;;;0.88;100.00
6680;BME280;3376;42.664;23.346;2023-01-28T07:01:22;94124.94;;;0.75;100.00
6680;BME280;3376;42.664;23.346;2023-01-28T07:03:49;94146.38;;;1.02;100.00
6680;BME280;3376;42.664;23.346;2023-01-28T07:06:16;94155.28;;;1.08;100.00
6680;BME280;3376;42.664;23.346;2023-01-28T07:08:42;94151.97;;;0.96;100.00
6680;BME280;3376;42.664;23.346;2023-01-28T07:11:09;94163.13;;;0.95;100.00
6680;BME280;3376;42.664;23.346;2023-01-28T07:13:37;94163.75;;;0.88;100.00
6680;BME280;3376;42.664;23.346;2023-01-28T07:16:05;94171.28;;;0.89;100.00
6680;BME280;3376;42.664;23.346;2023-01-28T07:18:32;94169.78;;;0.87;100.00
6680;BME280;3376;42.664;23.346;2023-01-28T07:20:58;94165.06;;;0.82;100.00
6680;BME280;3376;42.664;23.346;2023-01-28T07:23:25;94180.72;;;0.98;100.00
6680;BME280;3376;42.664;23.346;2023-01-28T07:25:52;94186.50;;;1.00;100.00
6680;BME280;3376;42.664;23.346;2023-01-28T07:28:19;94185.97;;;1.06;100.00
6680;BME280;3376;42.664;23.346;2023-01-28T07:30:49;94182.25;;;1.10;100.00
6680;BME280;3376;42.664;23.346;2023-01-28T07:33:16;94158.72;;;0.97;100.00
6680;BME280;3376;42.664;23.346;2023-01-28T07:35:44;94196.50;;;1.13;100.00
6680;BME280;3376;42.664;23.346;2023-01-28T07:38:11;94199.72;;;1.15;100.00
6680;BME280;3376;42.664;23.346;2023-01-28T07:40:38;94180.38;;;1.12;100.00
6680;BME280;3376;42.664;23.346;2023-01-28T07:43:06;94195.72;;;1.22;100.00
6680;BME280;3376;42.664;23.346;2023-01-28T07:45:33;94207.03;;;1.29;100.00
6680;BME280;3376;42.664;23.346;2023-01-28T07:48:03;94198.69;;;1.27;100.00
6680;BME280;3376;42.664;23.346;2023-01-28T07:50:33;94196.75;;;1.10;100.00
6680;BME280;3376;42.664;23.346;2023-01-28T07:53:01;94201.06;;;1.09;100.00
6680;BME280;3376;42.664;23.346;2023-01-28T07:55:28;94212.59;;;1.13;100.00
6680;BME280;3376;42.664;23.346;2023-01-28T07:57:56;94213.97;;;1.17;100.00
6680;BME280;3376;42.664;23.346;2023-01-28T08:00:24;94210.72;;;1.15;100.00
6680;BME280;3376;42.664;23.346;2023-01-28T08:02:54;94205.88;;;1.12;100.00
6680;BME280;3376;42.664;23.346;2023-01-28T08:05:23;94199.94;;;1.02;100.00
6680;BME280;3376;42.664;23.346;2023-01-28T08:07:51;94190.03;;;1.09;100.00
6680;BME280;3376;42.664;23.346;2023-01-28T08:10:18;94222.72;;;1.25;100.00
6680;BME280;3376;42.664;23.346;2023-01-28T08:12:52;94214.81;;;1.28;100.00
6680;BME280;3376;42.664;23.346;2023-01-28T08:15:18;94209.97;;;1.25;100.00
6680;BME280;3376;42.664;23.346;2023-01-28T08:17:45;94211.97;;;1.21;100.00
6680;BME280;3376;42.664;23.346;2023-01-28T08:20:12;94228.19;;;1.20;100.00
6680;BME280;3376;42.664;23.346;2023-01-28T08:22:40;94234.97;;;1.31;100.00
6680;BME280;3376;42.664;23.346;2023-01-28T08:25:07;94234.72;;;1.34;100.00
6680;BME280;3376;42.664;23.346;2023-01-28T08:27:34;94225.44;;;1.33;100.00
6680;BME280;3376;42.664;23.346;2023-01-28T08:30:01;94227.50;;;1.39;100.00
6680;BME280;3376;42.664;23.346;2023-01-28T08:32:28;94217.16;;;1.40;100.00
6680;BME280;3376;42.664;23.346;2023-01-28T08:34:55;94230.34;;;1.45;100.00
6680;BME280;3376;42.664;23.346;2023-01-28T08:37:22;94229.31;;;1.57;100.00
6680;BME280;3376;42.664;23.346;2023-01-28T08:39:50;94231.59;;;1.60;100.00
6680;BME280;3376;42.664;23.346;2023-01-28T08:42:17;94230.84;;;1.69;100.00
6680;BME280;3376;42.664;23.346;2023-01-28T08:44:44;94227.63;;;1.77;100.00
6680;BME280;3376;42.664;23.346;2023-01-28T08:47:12;94233.03;;;1.93;100.00
6680;BME280;3376;42.664;23.346;2023-01-28T08:49:39;94230.38;;;2.04;100.00
6680;BME280;3376;42.664;23.346;2023-01-28T08:52:05;94236.81;;;1.98;100.00
6680;BME280;3376;42.664;23.346;2023-01-28T08:54:32;94238.16;;;2.02;100.00
6680;BME280;3376;42.664;23.346;2023-01-28T08:57:02;94243.84;;;2.25;100.00
6680;BME280;3376;42.664;23.346;2023-01-28T08:59:29;94238.88;;;2.52;100.00
6680;BME280;3376;42.664;23.346;2023-01-28T09:01:55;94240.66;;;2.71;100.00
6680;BME280;3376;42.664;23.346;2023-01-28T09:04:22;94238.22;;;2.69;100.00
6680;BME280;3376;42.664;23.346;2023-01-28T09:06:49;94237.97;;;2.72;100.00
6680;BME280;3376;42.664;23.346;2023-01-28T09:09:15;94243.06;;;2.91;100.00
6680;BME280;3376;42.664;23.346;2023-01-28T09:11:42;94251.41;;;2.84;100.00
6680;BME280;3376;42.664;23.346;2023-01-28T09:14:10;94248.72;;;2.85;100.00
6680;BME280;3376;42.664;23.346;2023-01-28T09:16:37;94248.44;;;2.69;100.00
6680;BME280;3376;42.664;23.346;2023-01-28T09:19:04;94243.59;;;2.85;100.00
6680;BME280;3376;42.664;23.346;2023-01-28T09:21:30;94242.00;;;2.84;100.00
6680;BME280;3376;42.664;23.346;2023-01-28T09:23:57;94254.38;;;2.70;100.00
6680;BME280;3376;42.664;23.346;2023-01-28T09:26:24;94250.47;;;2.75;100.00
6680;BME280;3376;42.664;23.346;2023-01-28T09:28:50;94244.41;;;2.67;100.00
6680;BME280;3376;42.664;23.346;2023-01-28T09:31:18;94238.63;;;2.84;100.00
6680;BME280;3376;42.664;23.346;2023-01-28T09:33:46;94235.00;;;2.77;100.00
6680;BME280;3376;42.664;23.346;2023-01-28T09:36:12;94253.16;;;2.64;100.00
6680;BME280;3376;42.664;23.346;2023-01-28T09:38:39;94239.72;;;2.62;100.00
6680;BME280;3376;42.664;23.346;2023-01-28T09:41:23;94240.91;;;2.58;100.00
6680;BME280;3376;42.664;23.346;2023-01-28T09:44:05;94246.03;;;2.39;100.00
6680;BME280;3376;42.664;23.346;2023-01-28T09:46:36;94208.06;;;2.06;100.00
6680;BME280;3376;42.664;23.346;2023-01-28T09:49:13;94238.50;;;2.37;100.00
6680;BME280;3376;42.664;23.346;2023-01-28T09:51:47;94243.88;;;2.44;100.00
6680;BME280;3376;42.664;23.346;2023-01-28T09:54:22;94241.06;;;2.57;100.00
6680;BME280;3376;42.664;23.346;2023-01-28T09:56:53;94242.81;;;2.47;100.00
6680;BME280;3376;42.664;23.346;2023-01-28T09:59:23;94236.34;;;2.52;100.00
6680;BME280;3376;42.664;23.346;2023-01-28T10:01:56;94241.19;;;2.46;100.00
6680;BME280;3376;42.664;23.346;2023-01-28T10:04:33;94245.91;;;2.50;100.00
6680;BME280;3376;42.664;23.346;2023-01-28T10:07:18;94238.63;;;2.46;100.00
6680;BME280;3376;42.664;23.346;2023-01-28T10:09:55;94223.97;;;2.38;100.00
6680;BME280;3376;42.664;23.346;2023-01-28T10:12:41;94234.97;;;2.38;100.00
6680;BME280;3376;42.664;23.346;2023-01-28T10:15:24;94224.09;;;2.46;100.00
6680;BME280;3376;42.664;23.346;2023-01-28T10:17:58;94233.94;;;2.60;100.00
6680;BME280;3376;42.664;23.346;2023-01-28T10:20:28;94229.50;;;2.62;100.00
6680;BME280;3376;42.664;23.346;2023-01-28T10:23:01;94203.78;;;2.54;100.00
6680;BME280;3376;42.664;23.346;2023-01-28T10:25:31;94239.69;;;2.81;100.00
6680;BME280;3376;42.664;23.346;2023-01-28T10:28:00;94218.31;;;2.63;100.00
6680;BME280;3376;42.664;23.346;2023-01-28T10:30:30;94241.44;;;2.71;100.00
6680;BME280;3376;42.664;23.346;2023-01-28T10:33:03;94241.72;;;2.78;100.00
6680;BME280;3376;42.664;23.346;2023-01-28T10:35:32;94228.16;;;2.58;100.00
6680;BME280;3376;42.664;23.346;2023-01-28T10:38:04;94240.91;;;2.77;100.00
6680;BME280;3376;42.664;23.346;2023-01-28T10:40:32;94233.38;;;2.85;100.00
6680;BME280;3376;42.664;23.346;2023-01-28T10:42:59;94237.13;;;2.91;100.00
6680;BME280;3376;42.664;23.346;2023-01-28T10:45:29;94246.25;;;3.12;100.00
6680;BME280;3376;42.664;23.346;2023-01-28T10:48:02;94236.25;;;3.28;100.00
6680;BME280;3376;42.664;23.346;2023-01-28T10:50:32;94232.97;;;3.45;100.00
6680;BME280;3376;42.664;23.346;2023-01-28T10:53:01;94236.97;;;3.48;100.00
6680;BME280;3376;42.664;23.346;2023-01-28T10:55:29;94223.41;;;3.75;100.00
6680;BME280;3376;42.664;23.346;2023-01-28T10:57:58;94236.47;;;3.81;100.00
6680;BME280;3376;42.664;23.346;2023-01-28T11:00:27;94235.56;;;3.73;100.00
6680;BME280;3376;42.664;23.346;2023-01-28T11:02:55;94218.94;;;3.49;100.00
6680;BME280;3376;42.664;23.346;2023-01-28T11:05:25;94226.47;;;3.51;100.00
6680;BME280;3376;42.664;23.346;2023-01-28T11:08:05;94239.16;;;3.52;100.00
6680;BME280;3376;42.664;23.346;2023-01-28T11:10:33;94219.63;;;3.42;100.00
6680;BME280;3376;42.664;23.346;2023-01-28T11:13:03;94237.28;;;3.45;100.00
6680;BME280;3376;42.664;23.346;2023-01-28T11:15:30;94230.22;;;3.56;100.00
6680;BME280;3376;42.664;23.346;2023-01-28T11:17:59;94206.47;;;3.27;100.00
6680;BME280;3376;42.664;23.346;2023-01-28T11:20:39;94234.56;;;3.46;100.00
6680;BME280;3376;42.664;23.346;2023-01-28T11:23:17;94231.31;;;3.54;100.00
6680;BME280;3376;42.664;23.346;2023-01-28T11:25:45;94229.09;;;3.69;100.00
6680;BME280;3376;42.664;23.346;2023-01-28T11:28:16;94231.03;;;3.84;100.00
6680;BME280;3376;42.664;23.346;2023-01-28T11:30:49;94224.50;;;3.72;100.00
6680;BME280;3376;42.664;23.346;2023-01-28T11:33:19;94231.53;;;3.70;100.00
6680;BME280;3376;42.664;23.346;2023-01-28T11:35:55;94232.38;;;3.61;100.00
6680;BME280;3376;42.664;23.346;2023-01-28T11:38:24;94224.59;;;3.53;100.00
6680;BME280;3376;42.664;23.346;2023-01-28T11:40:53;94235.91;;;3.50;100.00
6680;BME280;3376;42.664;23.346;2023-01-28T11:43:21;94218.19;;;3.30;100.00
6680;BME280;3376;42.664;23.346;2023-01-28T11:45:56;94225.56;;;3.42;100.00
6680;BME280;3376;42.664;23.346;2023-01-28T11:48:34;94222.78;;;3.36;100.00
6680;BME280;3376;42.664;23.346;2023-01-28T11:51:18;94202.78;;;3.49;100.00
6680;BME280;3376;42.664;23.346;2023-01-28T11:53:56;94227.81;;;3.55;100.00
6680;BME280;3376;42.664;23.346;2023-01-28T11:56:44;94215.72;;;3.47;100.00
6680;BME280;3376;42.664;23.346;2023-01-28T11:59:26;94216.13;;;3.43;100.00
6680;BME280;3376;42.664;23.346;2023-01-28T12:02:05;94222.66;;;3.65;100.00
6680;BME280;3376;42.664;23.346;2023-01-28T12:04:49;94221.91;;;3.54;99.42
6680;BME280;3376;42.664;23.346;2023-01-28T12:07:34;94227.50;;;3.68;99.26
6680;BME280;3376;42.664;23.346;2023-01-28T12:10:10;94213.94;;;3.48;98.69
6680;BME280;3376;42.664;23.346;2023-01-28T12:12:52;94231.59;;;3.51;100.00
6680;BME280;3376;42.664;23.346;2023-01-28T12:15:50;94225.44;;;3.34;100.00
6680;BME280;3376;42.664;23.346;2023-01-28T12:21:29;94234.63;;;3.27;100.00
6680;BME280;3376;42.664;23.346;2023-01-28T12:24:17;94225.34;;;3.26;100.00
6680;BME280;3376;42.664;23.346;2023-01-28T12:26:50;94218.75;;;3.24;100.00
6680;BME280;3376;42.664;23.346;2023-01-28T12:29:28;94228.44;;;3.30;100.00
6680;BME280;3376;42.664;23.346;2023-01-28T12:32:10;94227.75;;;3.37;100.00
6680;BME280;3376;42.664;23.346;2023-01-28T12:35:02;94220.63;;;3.31;100.00
6680;BME280;3376;42.664;23.346;2023-01-28T12:37:39;94229.78;;;3.34;100.00
6680;BME280;3376;42.664;23.346;2023-01-28T12:40:20;94232.72;;;3.39;100.00
6680;BME280;3376;42.664;23.346;2023-01-28T12:42:52;94242.00;;;3.49;100.00
6680;BME280;3376;42.664;23.346;2023-01-28T12:45:25;94243.88;;;3.38;100.00
6680;BME280;3376;42.664;23.346;2023-01-28T12:47:56;94227.13;;;3.16;100.00
6680;BME280;3376;42.664;23.346;2023-01-28T12:50:27;94235.72;;;3.25;100.00
6680;BME280;3376;42.664;23.346;2023-01-28T12:52:58;94233.50;;;3.39;100.00
6680;BME280;3376;42.664;23.346;2023-01-28T12:55:36;94255.81;;;3.56;100.00
6680;BME280;3376;42.664;23.346;2023-01-28T12:58:11;94253.16;;;3.48;100.00
6680;BME280;3376;42.664;23.346;2023-01-28T13:00:45;94253.25;;;3.66;100.00
6680;BME280;3376;42.664;23.346;2023-01-28T13:03:19;94236.81;;;3.59;100.00
6680;BME280;3376;42.664;23.346;2023-01-28T13:05:49;94253.19;;;3.76;100.00
6680;BME280;3376;42.664;23.346;2023-01-28T13:08:19;94231.00;;;3.67;100.00
6680;BME280;3376;42.664;23.346;2023-01-28T13:10:49;94259.34;;;3.55;100.00
6680;BME280;3376;42.664;23.346;2023-01-28T13:13:20;94259.91;;;3.49;100.00
6680;BME280;3376;42.664;23.346;2023-01-28T13:15:48;94263.41;;;3.48;100.00
6680;BME280;3376;42.664;23.346;2023-01-28T13:18:34;94261.03;;;3.37;100.00
6680;BME280;3376;42.664;23.346;2023-01-28T13:21:13;94258.47;;;3.28;100.00
6680;BME280;3376;42.664;23.346;2023-01-28T13:23:42;94240.34;;;3.12;100.00
6680;BME280;3376;42.664;23.346;2023-01-28T13:26:29;94266.16;;;3.28;100.00
6680;BME280;3376;42.664;23.346;2023-01-28T13:31:57;94275.06;;;3.24;100.00
6680;BME280;3376;42.664;23.346;2023-01-28T13:34:35;94268.19;;;3.24;100.00
6680;BME280;3376;42.664;23.346;2023-01-28T13:37:06;94236.19;;;3.01;100.00